createdAt,value
2018-04-13T00:02:22.868Z,13.70
2018-04-13T00:04:58.523Z,13.70
2018-04-13T00:07:33.452Z,13.70
2018-04-13T00:10:08.492Z,13.60
2018-04-13T00:12:44.204Z,13.60
2018-04-13T00:15:18.967Z,13.60
2018-04-13T00:17:54.010Z,13.60
2018-04-13T00:20:29.652Z,13.60
2018-04-13T00:23:04.692Z,13.50
2018-04-13T00:25:39.660Z,13.40
2018-04-13T00:28:14.552Z,13.40
2018-04-13T00:30:50.405Z,13.40
2018-04-13T00:33:25.997Z,13.40
2018-04-13T00:36:01.706Z,13.40
2018-04-13T00:38:36.876Z,13.40
2018-04-13T00:41:11.985Z,13.40
2018-04-13T00:43:46.855Z,13.40
2018-04-13T00:46:21.950Z,13.40
2018-04-13T00:48:58.093Z,13.40
2018-04-13T00:51:33.451Z,13.40
2018-04-13T00:54:08.286Z,13.30
2018-04-13T00:56:44.071Z,13.30
2018-04-13T00:59:19.784Z,13.40
2018-04-13T01:01:54.614Z,13.30
2018-04-13T01:04:29.390Z,13.30
2018-04-13T01:07:04.275Z,13.30
2018-04-13T01:09:39.464Z,13.30
2018-04-13T01:12:15.063Z,13.30
2018-04-13T01:14:50.917Z,13.20
2018-04-13T01:17:25.747Z,13.20
2018-04-13T01:20:00.679Z,13.20
2018-04-13T01:22:35.512Z,13.20
2018-04-13T01:25:10.443Z,13.20
2018-04-13T01:27:45.275Z,13.30
2018-04-13T01:30:19.999Z,13.30
2018-04-13T01:32:55.446Z,13.30
2018-04-13T01:35:30.482Z,13.30
2018-04-13T01:38:06.540Z,13.20
2018-04-13T01:40:41.578Z,13.20
2018-04-13T01:43:18.186Z,13.30
2018-04-13T01:45:53.012Z,13.20
2018-04-13T01:48:28.117Z,13.20
2018-04-13T01:51:02.944Z,13.20
2018-04-13T01:53:37.775Z,13.30
2018-04-13T01:56:12.607Z,13.20
2018-04-13T01:58:48.254Z,13.20
2018-04-13T02:01:23.246Z,13.30
2018-04-13T02:03:58.016Z,13.30
2018-04-13T02:06:33.158Z,13.30
2018-04-13T02:09:09.020Z,13.20
2018-04-13T02:11:43.945Z,13.20
2018-04-13T02:14:19.803Z,13.30
2018-04-13T02:16:54.936Z,13.30
2018-04-13T02:19:30.533Z,13.20
2018-04-13T02:22:05.424Z,13.30
2018-04-13T02:24:41.063Z,13.30
2018-04-13T02:27:16.925Z,13.30
2018-04-13T02:29:53.080Z,13.40
2018-04-13T02:32:28.529Z,13.30
2018-04-13T02:35:03.471Z,13.30
2018-04-13T02:37:39.107Z,13.20
2018-04-13T02:40:14.045Z,13.30
2018-04-13T02:42:49.942Z,13.30
2018-04-13T02:45:25.547Z,13.40
2018-04-13T02:48:00.748Z,13.40
2018-04-13T02:50:36.944Z,13.40
2018-04-13T02:53:12.183Z,13.40
2018-04-13T02:55:47.047Z,13.50
2018-04-13T02:58:21.985Z,13.50
2018-04-13T03:00:56.673Z,13.50
2018-04-13T03:03:31.707Z,13.50
2018-04-13T03:06:06.593Z,13.40
2018-04-13T03:08:42.084Z,13.40
2018-04-13T03:11:17.432Z,13.50
2018-04-13T03:13:52.462Z,13.40
2018-04-13T03:16:28.422Z,13.50
2018-04-13T03:19:04.176Z,13.50
2018-04-13T03:21:39.721Z,13.50
2018-04-13T03:24:14.451Z,13.50
2018-04-13T03:26:49.422Z,13.50
2018-04-13T03:29:25.126Z,13.50
2018-04-13T03:32:01.088Z,13.60
2018-04-13T03:34:35.915Z,13.60
2018-04-13T03:37:11.771Z,13.50
2018-04-13T03:39:48.450Z,13.60
2018-04-13T03:42:24.245Z,13.60
2018-04-13T03:45:00.158Z,13.60
2018-04-13T03:47:35.295Z,13.50
2018-04-13T03:50:10.943Z,13.60
2018-04-13T03:52:48.273Z,13.60
2018-04-13T03:55:23.716Z,13.60
2018-04-13T03:57:58.916Z,13.60
2018-04-13T04:00:33.984Z,13.60
2018-04-13T04:03:09.636Z,13.60
2018-04-13T04:05:45.563Z,13.50
2018-04-13T04:08:20.589Z,13.50
2018-04-13T04:10:56.972Z,13.50
2018-04-13T04:13:32.201Z,13.50
2018-04-13T04:16:08.154Z,13.50
2018-04-13T04:18:43.804Z,13.50
2018-04-13T04:21:30.409Z,13.40
2018-04-13T04:24:17.529Z,13.40
2018-04-13T04:26:55.329Z,13.30
2018-04-13T04:29:30.573Z,13.30
2018-04-13T04:32:05.499Z,13.40
2018-04-13T04:34:40.741Z,13.40
2018-04-13T04:37:15.578Z,13.40
2018-04-13T04:39:50.913Z,13.40
2018-04-13T04:42:25.747Z,13.40
2018-04-13T04:45:00.785Z,13.40
2018-04-13T04:47:36.427Z,13.40
2018-04-13T04:50:11.406Z,13.30
2018-04-13T04:52:46.501Z,13.30
2018-04-13T04:55:22.352Z,13.40
2018-04-13T04:57:58.004Z,13.40
2018-04-13T05:00:33.654Z,13.40
2018-04-13T05:03:09.407Z,13.40
2018-04-13T05:05:45.876Z,13.40
2018-04-13T05:08:21.214Z,13.40
2018-04-13T05:10:56.147Z,13.40
2018-04-13T05:13:30.995Z,13.40
2018-04-13T05:16:06.836Z,13.50
2018-04-13T05:18:42.390Z,13.50
2018-04-13T05:21:17.518Z,13.50
2018-04-13T05:23:52.653Z,13.60
2018-04-13T05:26:27.692Z,13.60
2018-04-13T05:29:03.440Z,13.60
2018-04-13T05:31:38.374Z,13.50
2018-04-13T05:34:13.100Z,13.40
2018-04-13T05:36:48.034Z,13.50
2018-04-13T05:39:23.068Z,13.50
2018-04-13T05:41:58.103Z,13.50
2018-04-13T05:44:33.752Z,13.50
2018-04-13T05:47:09.092Z,13.50
2018-04-13T05:49:44.335Z,13.50
2018-04-13T05:52:19.784Z,13.50
2018-04-13T05:54:55.428Z,13.50
2018-04-13T05:57:30.468Z,13.50
2018-04-13T06:00:05.497Z,13.50
2018-04-13T06:02:40.532Z,13.50
2018-04-13T06:05:15.773Z,13.50
2018-04-13T06:07:50.604Z,13.50
2018-04-13T06:10:25.439Z,13.60
2018-04-13T06:13:01.086Z,13.50
2018-04-13T06:15:36.327Z,13.50
2018-04-13T06:18:11.358Z,13.50
2018-04-13T06:20:46.613Z,13.40
2018-04-13T06:23:22.246Z,13.50
2018-04-13T06:25:56.976Z,13.50
2018-04-13T06:28:31.983Z,13.50
2018-04-13T06:31:06.737Z,13.50
2018-04-13T06:33:45.869Z,13.60
2018-04-13T06:36:21.010Z,13.60
2018-04-13T06:38:57.067Z,13.70
2018-04-13T06:41:34.424Z,13.80
2018-04-13T06:44:10.253Z,13.80
2018-04-13T06:46:45.960Z,13.90
2018-04-13T06:49:21.302Z,14.10
2018-04-13T06:51:57.057Z,14.10
2018-04-13T06:54:31.883Z,14.20
2018-04-13T06:57:06.920Z,14.30
2018-04-13T06:59:42.363Z,14.40
2018-04-13T07:02:18.013Z,14.40
2018-04-13T07:04:52.949Z,14.50
2018-04-13T07:07:27.778Z,14.40
2018-04-13T07:10:02.820Z,14.50
2018-04-13T07:12:37.846Z,14.50
2018-04-13T07:15:12.882Z,14.60
2018-04-13T07:17:48.533Z,14.50
2018-04-13T07:20:23.568Z,14.60
2018-04-13T07:22:58.603Z,14.50
2018-04-13T07:25:33.635Z,14.50
2018-04-13T07:28:08.465Z,14.50
2018-04-13T07:30:43.296Z,14.50
2018-04-13T07:33:18.029Z,14.60
2018-04-13T07:35:53.169Z,14.60
2018-04-13T07:38:28.811Z,14.70
2018-04-13T07:41:03.958Z,14.70
2018-04-13T07:43:39.805Z,14.70
2018-04-13T07:46:14.647Z,14.70
2018-04-13T07:48:49.676Z,14.80
2018-04-13T07:51:24.714Z,14.80
2018-04-13T07:54:00.561Z,14.90
2018-04-13T07:56:35.603Z,15.00
2018-04-13T07:59:10.731Z,15.10
2018-04-13T08:01:45.659Z,15.10
2018-04-13T08:04:20.496Z,15.10
2018-04-13T08:06:55.529Z,15.20
2018-04-13T08:09:30.563Z,15.20
2018-04-13T08:12:05.959Z,15.20
2018-04-13T08:14:41.976Z,15.00
2018-04-13T08:17:17.207Z,15.00
2018-04-13T08:19:52.138Z,14.90
2018-04-13T08:22:27.334Z,14.90
2018-04-13T08:25:02.208Z,14.90
2018-04-13T08:27:37.550Z,14.90
2018-04-13T08:30:12.341Z,14.90
2018-04-13T08:32:47.212Z,14.90
2018-04-13T08:35:22.908Z,14.90
2018-04-13T08:37:57.798Z,15.00
2018-04-13T08:40:32.628Z,15.00
2018-04-13T08:43:07.863Z,14.90
2018-04-13T08:45:42.699Z,14.90
2018-04-13T08:48:17.732Z,14.90
2018-04-13T08:50:52.792Z,14.90
2018-04-13T08:53:28.004Z,14.80
2018-04-13T08:56:03.758Z,14.80
2018-04-13T08:58:38.526Z,14.70
2018-04-13T09:01:13.216Z,14.70
2018-04-13T09:03:48.405Z,14.60
2018-04-13T09:06:24.258Z,14.60
2018-04-13T09:08:59.190Z,14.70
2018-04-13T09:11:34.398Z,14.80
2018-04-13T09:14:10.437Z,14.80
2018-04-13T09:16:47.635Z,14.80
2018-04-13T09:19:23.273Z,14.70
2018-04-13T09:21:58.305Z,14.70
2018-04-13T09:24:33.549Z,14.80
2018-04-13T09:27:08.374Z,14.80
2018-04-13T09:29:43.206Z,14.80
2018-04-13T09:32:18.444Z,14.90
2018-04-13T09:34:53.906Z,14.80
2018-04-13T09:37:28.938Z,14.90
2018-04-13T09:40:04.573Z,15.00
2018-04-13T09:42:39.710Z,15.10
2018-04-13T09:45:15.564Z,15.10
2018-04-13T09:47:51.320Z,15.10
2018-04-13T09:50:26.150Z,15.00
2018-04-13T09:53:02.216Z,15.00
2018-04-13T09:55:37.454Z,15.00
2018-04-13T09:58:12.482Z,15.10
2018-04-13T10:00:47.518Z,15.10
2018-04-13T10:03:22.347Z,15.10
2018-04-13T10:05:57.589Z,15.30
2018-04-13T10:08:33.337Z,15.60
2018-04-13T10:11:08.578Z,15.60
2018-04-13T10:13:43.615Z,14.60
2018-04-13T10:16:18.649Z,15.70
2018-04-13T10:18:53.887Z,15.60
2018-04-13T10:21:28.718Z,15.60
2018-04-13T10:24:04.584Z,15.30
2018-04-13T10:26:39.608Z,15.30
2018-04-13T10:29:14.438Z,15.20
2018-04-13T10:31:49.477Z,15.10
2018-04-13T10:34:24.101Z,15.00
2018-04-13T10:36:59.340Z,14.90
2018-04-13T10:39:34.380Z,15.60
2018-04-13T10:42:09.823Z,14.90
2018-04-13T10:44:45.058Z,14.90
2018-04-13T10:47:22.567Z,14.90
2018-04-13T10:49:57.487Z,14.90
2018-04-13T10:52:32.419Z,14.80
2018-04-13T10:55:07.250Z,14.80
2018-04-13T10:57:42.286Z,14.60
2018-04-13T11:00:17.012Z,14.40
2018-04-13T11:02:52.454Z,14.00
2018-04-13T11:05:27.909Z,13.80
2018-04-13T11:08:02.944Z,13.70
2018-04-13T11:10:38.326Z,13.70
2018-04-13T11:13:14.027Z,13.70
2018-04-13T11:15:49.064Z,13.60
2018-04-13T11:18:23.933Z,13.50
2018-04-13T11:20:58.787Z,13.60
2018-04-13T11:23:34.576Z,13.50
2018-04-13T11:26:10.226Z,13.50
2018-04-13T11:28:45.977Z,13.60
2018-04-13T11:31:21.223Z,13.60
2018-04-13T11:33:57.073Z,13.60
2018-04-13T11:36:31.903Z,13.60
2018-04-13T11:39:07.456Z,13.80
2018-04-13T11:41:44.091Z,13.90
2018-04-13T11:44:19.567Z,13.90
2018-04-13T11:46:54.402Z,13.80
2018-04-13T11:49:29.369Z,13.70
2018-04-13T11:52:04.467Z,13.60
2018-04-13T11:54:39.645Z,13.60
2018-04-13T11:57:15.167Z,13.60
2018-04-13T11:59:51.213Z,13.70
2018-04-13T12:02:26.466Z,13.70
2018-04-13T12:05:01.495Z,13.70
2018-04-13T12:07:36.717Z,13.70
2018-04-13T12:10:11.457Z,13.70
2018-04-13T12:12:46.491Z,13.70
2018-04-13T12:15:21.627Z,13.60
2018-04-13T12:17:57.211Z,13.70
2018-04-13T12:20:32.202Z,13.70
2018-04-13T12:23:07.782Z,13.60
2018-04-13T12:25:43.510Z,13.60
2018-04-13T12:28:18.645Z,13.60
2018-04-13T12:30:53.421Z,13.60
2018-04-13T12:33:28.511Z,13.60
2018-04-13T12:36:03.549Z,13.60
2018-04-13T12:38:39.403Z,13.80
2018-04-13T12:41:14.623Z,13.80
2018-04-13T12:43:50.495Z,13.90
2018-04-13T12:46:25.327Z,14.00
2018-04-13T12:49:00.373Z,14.10
2018-04-13T12:51:35.394Z,14.00
2018-04-13T12:54:10.561Z,14.10
2018-04-13T12:56:45.373Z,14.20
2018-04-13T12:59:20.297Z,14.10
2018-04-13T13:01:55.330Z,14.20
2018-04-13T13:04:30.154Z,14.30
2018-04-13T13:07:05.437Z,14.40
2018-04-13T13:09:40.744Z,14.60
2018-04-13T13:12:16.392Z,14.70
2018-04-13T13:14:51.431Z,14.70
2018-04-13T13:17:27.190Z,14.60
2018-04-13T13:20:02.831Z,14.60
2018-04-13T13:22:38.025Z,14.70
2018-04-13T13:25:12.838Z,14.70
2018-04-13T13:27:47.933Z,14.70
2018-04-13T13:30:22.768Z,14.70
2018-04-13T13:32:57.942Z,14.70
2018-04-13T13:35:33.658Z,14.70
2018-04-13T13:38:08.487Z,14.70
2018-04-13T13:40:43.367Z,14.60
2018-04-13T13:43:19.175Z,14.70
2018-04-13T13:45:54.900Z,14.80
2018-04-13T13:48:29.856Z,14.90
2018-04-13T13:51:05.713Z,15.10
2018-04-13T13:53:41.972Z,15.30
2018-04-13T13:56:17.212Z,15.30
2018-04-13T13:58:52.246Z,15.60
2018-04-13T14:01:27.287Z,15.60
2018-04-13T14:04:02.255Z,15.70
2018-04-13T14:06:38.067Z,15.60
2018-04-13T14:09:13.530Z,15.60
2018-04-13T14:11:48.468Z,15.50
2018-04-13T14:14:23.676Z,15.40
2018-04-13T14:16:59.346Z,15.20
2018-04-13T14:19:35.191Z,15.20
2018-04-13T14:22:10.226Z,15.20
2018-04-13T14:24:45.262Z,15.10
2018-04-13T14:27:21.014Z,15.10
2018-04-13T14:29:55.943Z,15.00
2018-04-13T14:32:30.880Z,15.00
2018-04-13T14:35:05.913Z,14.90
2018-04-13T14:37:40.965Z,15.00
2018-04-13T14:40:17.831Z,15.10
2018-04-13T14:42:53.882Z,15.10
2018-04-13T14:45:28.922Z,15.10
2018-04-13T14:48:04.774Z,15.20
2018-04-13T14:50:39.812Z,15.20
2018-04-13T14:53:15.467Z,15.00
2018-04-13T14:55:51.110Z,14.80
2018-04-13T14:58:26.142Z,14.70
2018-04-13T15:01:01.926Z,14.70
2018-04-13T15:03:36.727Z,14.80
2018-04-13T15:06:11.968Z,14.60
2018-04-13T15:08:46.800Z,14.80
2018-04-13T15:11:22.036Z,14.80
2018-04-13T15:13:57.687Z,14.90
2018-04-13T15:16:33.505Z,14.70
2018-04-13T15:19:08.581Z,14.70
2018-04-13T15:21:43.523Z,14.80
2018-04-13T15:24:19.265Z,14.80
2018-04-13T15:26:55.284Z,14.70
2018-04-13T15:29:31.093Z,14.70
2018-04-13T15:32:06.929Z,14.70
2018-04-13T15:34:41.933Z,14.60
2018-04-13T15:37:16.689Z,14.60
2018-04-13T15:39:51.467Z,14.60
2018-04-13T15:42:26.347Z,14.50
2018-04-13T15:45:01.384Z,14.50
2018-04-13T15:47:36.212Z,14.40
2018-04-13T15:50:12.068Z,14.40
2018-04-13T15:52:47.718Z,14.40
2018-04-13T15:55:22.385Z,14.40
2018-04-13T15:57:57.030Z,14.40
2018-04-13T16:00:31.901Z,14.40
2018-04-13T16:03:07.872Z,14.40
2018-04-13T16:05:43.461Z,14.40
2018-04-13T16:08:19.155Z,14.30
2018-04-13T16:10:53.787Z,14.40
2018-04-13T16:13:29.841Z,14.40
2018-04-13T16:16:05.959Z,14.30
2018-04-13T16:18:40.732Z,14.50
2018-04-13T16:21:15.865Z,14.40
2018-04-13T16:23:51.581Z,14.40
2018-04-13T16:26:26.554Z,14.30
2018-04-13T16:29:03.028Z,14.30
2018-04-13T16:31:38.406Z,14.30
2018-04-13T16:34:14.732Z,14.30
2018-04-13T16:36:50.174Z,14.30
2018-04-13T16:39:26.047Z,14.30
2018-04-13T16:42:01.694Z,14.50
2018-04-13T16:44:36.719Z,14.50
2018-04-13T16:47:11.345Z,14.50
2018-04-13T16:49:47.289Z,14.50
2018-04-13T16:52:23.081Z,14.50
2018-04-13T16:54:57.876Z,14.60
2018-04-13T16:57:32.910Z,14.40
2018-04-13T17:00:07.948Z,14.50
2018-04-13T17:02:42.774Z,14.50
2018-04-13T17:05:18.676Z,14.50
2018-04-13T17:07:53.609Z,14.50
2018-04-13T17:10:28.522Z,14.40
2018-04-13T17:13:04.222Z,14.40
2018-04-13T17:15:40.204Z,14.50
2018-04-13T17:18:32.646Z,14.50
2018-04-13T17:21:08.096Z,14.50
2018-04-13T17:23:42.715Z,14.50
2018-04-13T17:26:17.554Z,14.40
2018-04-13T17:28:52.376Z,14.40
2018-04-13T17:31:27.620Z,14.40
2018-04-13T17:34:02.450Z,14.40
2018-04-13T17:36:37.489Z,14.50
2018-04-13T17:39:12.214Z,14.50
2018-04-13T17:41:47.663Z,14.50
2018-04-13T17:44:23.307Z,14.50
2018-04-13T17:47:00.166Z,14.50
2018-04-13T17:49:36.912Z,14.40
2018-04-13T17:52:12.309Z,14.40
2018-04-13T17:54:47.981Z,14.40
2018-04-13T17:57:24.197Z,14.30
2018-04-13T18:00:00.213Z,14.30
2018-04-13T18:02:35.930Z,14.40
2018-04-13T18:05:11.687Z,14.40
2018-04-13T18:07:47.638Z,14.40
2018-04-13T18:10:23.543Z,14.40
2018-04-13T18:12:58.801Z,14.40
2018-04-13T18:15:33.832Z,14.40
2018-04-13T18:18:08.801Z,14.30
2018-04-13T18:20:43.836Z,14.30
2018-04-13T18:23:19.906Z,14.30
2018-04-13T18:25:55.547Z,14.20
2018-04-13T18:28:30.935Z,14.20
2018-04-13T18:31:06.131Z,14.20
2018-04-13T18:33:42.003Z,14.20
2018-04-13T18:36:17.216Z,14.20
2018-04-13T18:38:53.077Z,14.20
2018-04-13T18:41:29.610Z,14.20
2018-04-13T18:44:04.791Z,14.10
2018-04-13T18:46:39.609Z,14.10
2018-04-13T18:49:14.448Z,14.00
2018-04-13T18:51:49.794Z,14.00
2018-04-13T18:54:25.287Z,13.90
2018-04-13T18:57:00.105Z,13.90
2018-04-13T18:59:35.814Z,13.90
2018-04-13T19:02:10.643Z,14.00
2018-04-13T19:04:45.647Z,13.90
2018-04-13T19:07:20.508Z,13.90
2018-04-13T19:09:55.342Z,13.90
2018-04-13T19:12:29.973Z,13.90
2018-04-13T19:15:05.003Z,13.90
2018-04-13T19:17:40.655Z,13.90
2018-04-13T19:20:16.710Z,14.00
2018-04-13T19:22:51.745Z,13.90
2018-04-13T19:25:27.648Z,14.00
2018-04-13T19:28:03.574Z,14.00
2018-04-13T19:30:39.384Z,13.90
2018-04-13T19:33:14.240Z,14.00
2018-04-13T19:35:49.513Z,14.00
2018-04-13T19:38:25.171Z,14.00
2018-04-13T19:41:00.263Z,14.10
2018-04-13T19:43:35.450Z,14.10
2018-04-13T19:46:11.561Z,14.10
2018-04-13T19:48:46.503Z,14.10
2018-04-13T19:51:21.533Z,14.20
2018-04-13T19:53:57.123Z,14.20
2018-04-13T19:56:32.317Z,14.20
2018-04-13T19:59:07.762Z,14.20
2018-04-13T20:01:43.005Z,14.20
2018-04-13T20:04:18.452Z,14.10
2018-04-13T20:06:53.891Z,14.10
2018-04-13T20:09:28.925Z,14.10
2018-04-13T20:12:03.961Z,14.00
2018-04-13T20:14:38.792Z,14.00
2018-04-13T20:17:13.668Z,14.10
2018-04-13T20:19:50.402Z,14.10
2018-04-13T20:22:25.848Z,14.10
2018-04-13T20:25:00.983Z,14.10
2018-04-13T20:27:36.428Z,14.20
2018-04-13T20:30:11.901Z,14.10
2018-04-13T20:32:46.936Z,14.10
2018-04-13T20:35:22.450Z,14.20
2018-04-13T20:37:57.902Z,14.20
2018-04-13T20:40:33.136Z,14.20
2018-04-13T20:43:08.989Z,14.20
2018-04-13T20:45:44.025Z,14.20
2018-04-13T20:48:18.758Z,14.20
2018-04-13T20:50:53.894Z,14.20
2018-04-13T20:53:29.029Z,14.20
2018-04-13T20:56:04.061Z,14.10
2018-04-13T20:58:39.814Z,14.00
2018-04-13T21:01:14.950Z,14.00
2018-04-13T21:03:49.783Z,14.00
2018-04-13T21:06:24.816Z,14.00
2018-04-13T21:08:59.851Z,14.00
2018-04-13T21:11:34.686Z,14.00
2018-04-13T21:14:09.725Z,13.90
2018-04-13T21:16:44.553Z,13.90
2018-04-13T21:19:19.694Z,13.90
2018-04-13T21:21:54.497Z,13.90
2018-04-13T21:30:38.517Z,14.00
2018-04-13T21:33:14.372Z,14.10
2018-04-13T21:35:49.132Z,14.10
2018-04-13T21:38:24.019Z,14.20
2018-04-13T21:40:59.880Z,14.20
2018-04-13T21:43:35.531Z,14.20
2018-04-13T21:46:10.720Z,14.10
2018-04-13T21:48:45.598Z,14.10
2018-04-13T21:51:20.833Z,14.20
2018-04-13T21:53:57.250Z,14.20
2018-04-13T21:56:32.433Z,14.20
2018-04-13T21:59:07.187Z,14.20
2018-04-13T22:01:42.452Z,14.20
2018-04-13T22:04:17.340Z,14.20
2018-04-13T22:06:52.990Z,14.30
2018-04-13T22:09:28.126Z,14.30
2018-04-13T22:12:03.055Z,14.30
2018-04-13T22:14:57.551Z,14.30
2018-04-13T22:17:32.725Z,14.30
2018-04-13T22:20:08.916Z,14.30
2018-04-13T22:22:44.301Z,14.30
2018-04-13T22:25:26.125Z,14.20
2018-04-13T22:28:00.970Z,14.20
2018-04-13T22:30:35.750Z,14.30
2018-04-13T22:33:10.473Z,14.30
2018-04-13T22:35:45.815Z,14.30
2018-04-13T22:38:20.849Z,14.30
2018-04-13T22:40:56.533Z,14.30
2018-04-13T22:43:31.938Z,14.30
2018-04-13T22:46:07.382Z,14.30
2018-04-13T22:48:43.391Z,14.30
2018-04-13T22:51:20.782Z,14.30
2018-04-13T22:53:56.489Z,14.30
2018-04-13T22:56:32.552Z,14.20
2018-04-13T22:59:08.645Z,14.30
2018-04-13T23:01:44.862Z,14.30
2018-04-13T23:04:21.110Z,14.30
2018-04-13T23:06:57.507Z,14.30
2018-04-13T23:09:33.481Z,14.30
2018-04-13T23:12:09.005Z,14.30
2018-04-13T23:14:43.893Z,14.30
2018-04-13T23:17:18.665Z,14.30
2018-04-13T23:19:53.758Z,14.30
2018-04-13T23:22:38.055Z,14.20
2018-04-13T23:25:12.997Z,14.20
2018-04-13T23:27:48.019Z,14.20
2018-04-13T23:30:23.058Z,14.20
2018-04-13T23:32:59.523Z,14.20
2018-04-13T23:35:35.382Z,14.20
2018-04-13T23:38:10.412Z,14.20
2018-04-13T23:40:45.452Z,14.20
2018-04-13T23:43:21.199Z,14.20
2018-04-13T23:45:56.238Z,14.10
2018-04-13T23:48:31.681Z,14.10
2018-04-13T23:51:06.919Z,14.10
2018-04-13T23:53:42.570Z,14.10
2018-04-13T23:56:17.401Z,14.10
2018-04-13T23:58:52.334Z,14.10
